createdAt,value
2024-03-14T00:00:07.897Z,10.40
2024-03-14T00:02:34.849Z,10.40
2024-03-14T00:05:01.850Z,10.40
2024-03-14T00:07:28.806Z,10.30
2024-03-14T00:09:55.767Z,10.30
2024-03-14T00:12:22.853Z,10.30
2024-03-14T00:14:49.827Z,10.30
2024-03-14T00:17:17.081Z,10.30
2024-03-14T00:19:44.696Z,10.30
2024-03-14T00:22:11.609Z,10.30
2024-03-14T00:24:38.506Z,10.30
2024-03-14T00:27:05.602Z,10.30
2024-03-14T00:29:32.663Z,10.30
2024-03-14T00:31:59.636Z,10.30
2024-03-14T00:34:26.577Z,10.30
2024-03-14T00:36:54.291Z,10.30
2024-03-14T00:39:21.230Z,10.30
2024-03-14T00:41:48.210Z,10.30
2024-03-14T00:44:15.197Z,10.30
2024-03-14T00:46:42.101Z,10.30
2024-03-14T00:49:09.016Z,10.30
2024-03-14T00:51:35.912Z,10.20
2024-03-14T00:54:02.866Z,10.30
2024-03-14T00:56:29.845Z,10.20
2024-03-14T00:58:56.797Z,10.30
2024-03-14T01:01:23.769Z,10.20
2024-03-14T01:03:50.708Z,10.20
2024-03-14T01:06:17.666Z,10.10
2024-03-14T01:08:44.665Z,10.10
2024-03-14T01:11:11.661Z,10.10
2024-03-14T01:13:38.613Z,10.10
2024-03-14T01:16:06.372Z,10.00
2024-03-14T01:18:33.427Z,10.00
2024-03-14T01:21:00.428Z,10.00
2024-03-14T01:23:27.416Z,10.10
2024-03-14T01:25:54.371Z,10.10
2024-03-14T01:28:21.259Z,10.00
2024-03-14T01:30:48.200Z,10.00
2024-03-14T01:33:15.147Z,10.00
2024-03-14T01:35:42.176Z,10.00
2024-03-14T01:38:09.160Z,10.00
2024-03-14T01:40:36.184Z,10.10
2024-03-14T01:43:03.095Z,10.10
2024-03-14T01:45:30.244Z,10.10
2024-03-14T01:47:57.250Z,10.00
2024-03-14T01:50:24.251Z,10.00
2024-03-14T01:52:51.168Z,10.00
2024-03-14T01:55:18.103Z,10.00
2024-03-14T01:57:45.030Z,10.00
2024-03-14T02:00:12.351Z,10.00
2024-03-14T02:02:39.397Z,10.00
2024-03-14T02:05:06.771Z,10.00
2024-03-14T02:07:33.674Z,10.10
2024-03-14T02:10:00.682Z,10.10
2024-03-14T02:12:27.670Z,10.00
2024-03-14T02:14:54.779Z,10.00
2024-03-14T02:17:21.724Z,9.90
2024-03-14T02:19:48.677Z,10.00
2024-03-14T02:22:18.774Z,9.90
2024-03-14T02:24:45.713Z,9.90
2024-03-14T02:27:12.660Z,9.90
2024-03-14T02:29:39.557Z,9.90
2024-03-14T02:32:06.633Z,9.80
2024-03-14T02:34:33.557Z,9.80
2024-03-14T02:37:00.508Z,9.80
2024-03-14T02:39:27.447Z,9.80
2024-03-14T02:41:54.431Z,9.80
2024-03-14T02:44:21.354Z,9.80
2024-03-14T02:46:48.307Z,9.70
2024-03-14T02:49:15.264Z,9.70
2024-03-14T02:51:42.202Z,9.60
2024-03-14T02:54:09.123Z,9.60
2024-03-14T02:56:36.102Z,9.60
2024-03-14T02:59:03.039Z,9.50
2024-03-14T03:01:31.706Z,9.50
2024-03-14T03:03:58.638Z,9.50
2024-03-14T03:06:25.619Z,9.50
2024-03-14T03:08:52.633Z,9.50
2024-03-14T03:11:19.603Z,9.40
2024-03-14T03:13:46.598Z,9.50
2024-03-14T03:16:13.543Z,9.50
2024-03-14T03:18:40.658Z,9.50
2024-03-14T03:21:07.637Z,9.40
2024-03-14T03:23:34.578Z,9.40
2024-03-14T03:26:01.594Z,9.40
2024-03-14T03:28:29.199Z,9.40
2024-03-14T03:30:56.240Z,9.40
2024-03-14T03:33:23.197Z,9.40
2024-03-14T03:35:50.209Z,9.40
2024-03-14T03:38:17.184Z,9.40
2024-03-14T03:40:44.133Z,9.30
2024-03-14T03:43:11.050Z,9.30
2024-03-14T03:45:38.021Z,9.30
2024-03-14T03:48:05.416Z,9.30
2024-03-14T03:50:32.416Z,9.30
2024-03-14T03:52:59.348Z,9.30
2024-03-14T03:55:26.386Z,9.20
2024-03-14T03:57:53.412Z,9.20
2024-03-14T04:00:20.344Z,9.20
2024-03-14T04:02:47.290Z,9.20
2024-03-14T04:05:14.265Z,9.10
2024-03-14T04:07:41.186Z,9.10
2024-03-14T04:10:08.455Z,9.10
2024-03-14T04:12:35.408Z,9.20
2024-03-14T04:15:02.439Z,9.20
2024-03-14T04:17:29.447Z,9.20
2024-03-14T04:19:56.395Z,9.30
2024-03-14T04:22:23.296Z,9.20
2024-03-14T04:24:50.244Z,9.20
2024-03-14T04:27:17.156Z,9.20
2024-03-14T04:29:44.083Z,9.10
2024-03-14T04:32:11.062Z,9.10
2024-03-14T04:34:38.041Z,9.10
2024-03-14T04:37:04.967Z,9.10
2024-03-14T04:39:31.924Z,9.10
2024-03-14T04:41:58.847Z,9.10
2024-03-14T04:44:25.773Z,9.00
2024-03-14T04:46:52.727Z,9.00
2024-03-14T04:49:19.677Z,9.00
2024-03-14T04:51:46.636Z,9.00
2024-03-14T04:54:13.643Z,9.00
2024-03-14T04:56:40.649Z,8.90
2024-03-14T04:59:07.574Z,8.90
2024-03-14T05:01:34.585Z,8.90
2024-03-14T05:04:01.487Z,8.90
2024-03-14T05:06:28.532Z,8.90
2024-03-14T05:08:55.670Z,8.90
2024-03-14T05:11:22.712Z,8.80
2024-03-14T05:13:49.722Z,8.80
2024-03-14T05:16:16.747Z,8.80
2024-03-14T05:18:43.911Z,8.90
2024-03-14T05:21:10.985Z,8.90
2024-03-14T05:23:37.961Z,8.80
2024-03-14T05:26:06.684Z,8.80
2024-03-14T05:28:33.651Z,8.80
2024-03-14T05:31:00.540Z,8.80
2024-03-14T05:33:27.625Z,8.70
2024-03-14T05:35:54.597Z,8.70
2024-03-14T05:38:21.600Z,8.70
2024-03-14T05:40:48.565Z,8.70
2024-03-14T05:43:15.516Z,8.70
2024-03-14T05:45:42.536Z,8.70
2024-03-14T05:48:09.670Z,8.70
2024-03-14T05:50:36.676Z,8.70
2024-03-14T05:53:03.694Z,8.70
2024-03-14T05:55:30.584Z,8.70
2024-03-14T05:57:57.562Z,8.70
2024-03-14T06:00:24.520Z,8.70
2024-03-14T06:02:51.511Z,8.60
2024-03-14T06:05:18.522Z,8.60
2024-03-14T06:07:45.566Z,8.50
2024-03-14T06:10:12.586Z,8.50
2024-03-14T06:12:39.628Z,8.50
2024-03-14T06:15:06.996Z,8.50
2024-03-14T06:17:33.992Z,8.50
2024-03-14T06:20:00.974Z,8.60
2024-03-14T06:22:27.900Z,8.60
2024-03-14T06:24:54.814Z,8.70
2024-03-14T06:27:21.784Z,8.70
2024-03-14T06:29:48.745Z,8.70
2024-03-14T06:32:15.719Z,8.70
2024-03-14T06:34:42.676Z,8.70
2024-03-14T06:37:09.611Z,8.70
2024-03-14T06:39:38.832Z,8.80
2024-03-14T06:42:06.774Z,8.80
2024-03-14T06:44:33.823Z,8.80
2024-03-14T06:47:00.727Z,8.80
2024-03-14T06:49:27.696Z,8.90
2024-03-14T06:51:54.627Z,9.00
2024-03-14T06:54:21.652Z,9.10
2024-03-14T06:56:48.662Z,9.10
2024-03-14T06:59:15.692Z,9.20
2024-03-14T07:01:42.698Z,9.40
2024-03-14T07:04:09.681Z,9.50
2024-03-14T07:06:36.723Z,9.60
2024-03-14T07:09:03.828Z,9.60
2024-03-14T07:11:30.919Z,9.70
2024-03-14T07:13:58.141Z,9.80
2024-03-14T07:16:25.193Z,9.80
2024-03-14T07:18:52.364Z,9.90
2024-03-14T07:21:19.476Z,10.10
2024-03-14T07:23:46.449Z,10.10
2024-03-14T07:26:13.393Z,10.20
2024-03-14T07:28:40.351Z,10.30
2024-03-14T07:31:07.258Z,10.40
2024-03-14T07:33:34.451Z,10.50
2024-03-14T07:36:01.440Z,10.60
2024-03-14T07:38:28.451Z,10.90
2024-03-14T07:40:55.626Z,11.20
2024-03-14T07:43:22.597Z,11.60
2024-03-14T07:45:49.499Z,11.80
2024-03-14T07:48:16.510Z,11.90
2024-03-14T07:50:43.530Z,11.70
2024-03-14T07:53:11.419Z,11.70
2024-03-14T07:55:38.537Z,11.90
2024-03-14T07:58:05.504Z,12.20
2024-03-14T08:00:32.483Z,12.40
2024-03-14T08:02:59.479Z,12.30
2024-03-14T08:05:29.203Z,12.10
2024-03-14T08:08:09.073Z,12.10
2024-03-14T08:10:41.958Z,12.20
2024-03-14T08:13:08.933Z,12.40
2024-03-14T08:15:35.877Z,12.40
2024-03-14T08:18:03.735Z,12.50
2024-03-14T08:20:30.689Z,12.60
2024-03-14T08:22:57.613Z,12.80
2024-03-14T08:25:24.553Z,12.90
2024-03-14T08:27:51.504Z,12.90
2024-03-14T08:30:18.521Z,12.90
2024-03-14T08:32:45.504Z,13.20
2024-03-14T08:35:12.438Z,13.40
2024-03-14T08:37:39.351Z,13.50
2024-03-14T08:40:06.810Z,13.30
2024-03-14T08:42:42.640Z,13.30
2024-03-14T08:45:13.110Z,13.40
2024-03-14T08:47:40.245Z,13.60
2024-03-14T08:50:07.647Z,13.70
2024-03-14T08:52:34.648Z,13.50
2024-03-14T08:55:01.625Z,13.50
2024-03-14T08:57:28.608Z,13.50
2024-03-14T08:59:55.589Z,13.40
2024-03-14T09:02:22.496Z,13.60
2024-03-14T09:04:49.451Z,13.90
2024-03-14T09:07:16.370Z,14.20
2024-03-14T09:09:43.360Z,14.30
2024-03-14T09:12:10.592Z,14.30
2024-03-14T09:14:38.217Z,13.90
2024-03-14T09:17:05.189Z,13.90
2024-03-14T09:19:32.254Z,14.10
2024-03-14T09:21:59.216Z,14.10
2024-03-14T09:24:26.239Z,13.90
2024-03-14T09:26:53.248Z,13.80
2024-03-14T09:29:20.440Z,13.70
2024-03-14T09:31:47.402Z,13.70
2024-03-14T09:34:14.338Z,13.60
2024-03-14T09:36:41.350Z,13.50
2024-03-14T09:39:08.397Z,13.50
2024-03-14T09:41:35.489Z,13.80
2024-03-14T09:44:02.520Z,13.90
2024-03-14T09:46:29.487Z,14.20
2024-03-14T09:48:56.491Z,14.10
2024-03-14T09:51:23.508Z,14.20
2024-03-14T09:53:50.450Z,14.20
2024-03-14T09:56:17.416Z,14.40
2024-03-14T09:58:44.377Z,14.70
2024-03-14T10:01:11.633Z,14.80
2024-03-14T10:03:39.165Z,15.10
2024-03-14T10:06:06.385Z,15.40
2024-03-14T10:08:33.321Z,15.50
2024-03-14T10:11:00.271Z,15.70
2024-03-14T10:13:27.350Z,15.90
2024-03-14T10:15:54.275Z,16.10
2024-03-14T10:18:21.324Z,16.30
2024-03-14T10:20:48.339Z,15.90
2024-03-14T10:23:16.313Z,15.90
2024-03-14T10:25:43.222Z,15.70
2024-03-14T10:28:11.547Z,16.00
2024-03-14T10:30:42.925Z,16.00
2024-03-14T10:33:11.407Z,16.20
2024-03-14T10:35:39.792Z,16.10
2024-03-14T10:38:06.805Z,15.90
2024-03-14T10:40:33.754Z,15.80
2024-03-14T10:43:00.667Z,15.70
2024-03-14T10:45:28.102Z,15.80
2024-03-14T10:47:55.554Z,16.00
2024-03-14T10:50:22.502Z,16.00
2024-03-14T10:52:49.437Z,16.30
2024-03-14T10:55:16.508Z,16.40
2024-03-14T10:57:43.487Z,16.50
2024-03-14T11:00:11.223Z,16.20
2024-03-14T11:02:38.137Z,16.30
2024-03-14T11:05:05.394Z,16.50
2024-03-14T11:07:32.336Z,16.60
2024-03-14T11:09:59.283Z,16.70
2024-03-14T11:12:26.192Z,16.70
2024-03-14T11:14:53.221Z,16.70
2024-03-14T11:17:20.209Z,16.90
2024-03-14T11:19:47.142Z,16.90
2024-03-14T11:22:14.431Z,16.80
2024-03-14T11:24:42.001Z,16.90
2024-03-14T11:27:08.983Z,17.10
2024-03-14T11:29:35.890Z,17.10
2024-03-14T11:32:12.579Z,17.30
2024-03-14T11:34:39.539Z,17.40
2024-03-14T11:37:06.568Z,17.70
2024-03-14T11:39:37.202Z,17.90
2024-03-14T11:42:08.562Z,18.10
2024-03-14T11:44:35.567Z,18.10
2024-03-14T11:47:02.623Z,18.00
2024-03-14T11:49:29.603Z,18.00
2024-03-14T11:51:56.585Z,18.10
2024-03-14T11:54:23.572Z,18.00
2024-03-14T11:56:50.503Z,17.90
2024-03-14T11:59:17.611Z,17.80
2024-03-14T12:01:50.738Z,17.80
2024-03-14T12:04:18.561Z,17.90
2024-03-14T12:06:46.528Z,18.10
2024-03-14T12:09:13.595Z,18.30
2024-03-14T12:11:40.562Z,18.30
2024-03-14T12:14:07.511Z,18.00
2024-03-14T12:16:34.472Z,17.70
2024-03-14T12:19:06.683Z,17.80
2024-03-14T12:21:33.689Z,18.10
2024-03-14T12:24:00.781Z,18.30
2024-03-14T12:26:27.736Z,18.20
2024-03-14T12:28:54.696Z,18.30
2024-03-14T12:31:21.605Z,18.30
2024-03-14T12:33:48.770Z,18.20
2024-03-14T12:36:16.261Z,18.30
2024-03-14T12:38:48.059Z,18.60
2024-03-14T12:41:14.977Z,18.70
2024-03-14T12:43:42.103Z,18.50
2024-03-14T12:46:09.022Z,18.50
2024-03-14T12:48:36.002Z,18.50
2024-03-14T12:51:12.276Z,18.80
2024-03-14T12:53:39.380Z,18.90
2024-03-14T12:56:06.461Z,19.20
2024-03-14T12:58:33.793Z,19.30
2024-03-14T13:01:00.778Z,19.30
2024-03-14T13:03:28.390Z,19.30
2024-03-14T13:05:55.488Z,19.20
2024-03-14T13:08:22.469Z,19.00
2024-03-14T13:10:49.644Z,19.00
2024-03-14T13:13:16.824Z,19.20
2024-03-14T13:15:43.781Z,19.10
2024-03-14T13:18:13.860Z,18.80
2024-03-14T13:20:42.224Z,18.80
2024-03-14T13:23:09.776Z,19.10
2024-03-14T13:25:36.681Z,19.00
2024-03-14T13:28:03.771Z,19.10
2024-03-14T13:30:30.766Z,19.30
2024-03-14T13:32:57.922Z,19.50
2024-03-14T13:35:25.057Z,19.90
2024-03-14T13:37:51.970Z,20.00
2024-03-14T13:40:21.054Z,19.90
2024-03-14T13:42:48.361Z,19.90
2024-03-14T13:45:15.434Z,20.00
2024-03-14T13:47:42.462Z,19.80
2024-03-14T13:50:09.429Z,19.80
2024-03-14T13:52:36.403Z,19.70
2024-03-14T13:55:03.391Z,19.60
2024-03-14T13:57:30.423Z,19.50
2024-03-14T13:59:57.388Z,19.60
2024-03-14T14:02:24.348Z,19.60
2024-03-14T14:04:51.239Z,19.70
2024-03-14T14:07:18.188Z,19.60
2024-03-14T14:09:45.286Z,19.40
2024-03-14T14:12:12.251Z,19.10
2024-03-14T14:14:39.209Z,18.80
2024-03-14T14:17:06.182Z,18.90
2024-03-14T14:19:33.138Z,18.70
2024-03-14T14:22:00.058Z,18.70
2024-03-14T14:24:27.039Z,18.80
2024-03-14T14:26:54.091Z,19.00
2024-03-14T14:29:21.024Z,19.00
2024-03-14T14:31:47.983Z,19.00
2024-03-14T14:34:15.136Z,18.90
2024-03-14T14:36:42.262Z,19.00
2024-03-14T14:39:09.265Z,18.80
2024-03-14T14:41:36.207Z,18.90
2024-03-14T14:44:03.101Z,18.90
2024-03-14T14:46:30.092Z,18.80
2024-03-14T14:48:57.086Z,18.90
2024-03-14T14:51:24.230Z,19.00
2024-03-14T14:53:51.211Z,19.10
2024-03-14T14:56:18.214Z,19.00
2024-03-14T14:58:45.164Z,18.90
2024-03-14T15:01:12.544Z,18.70
2024-03-14T15:03:39.596Z,18.70
2024-03-14T15:06:06.830Z,18.70
2024-03-14T15:08:33.765Z,18.80
2024-03-14T15:11:00.755Z,18.90
2024-03-14T15:13:27.859Z,18.80
2024-03-14T15:15:55.081Z,18.70
2024-03-14T15:18:22.221Z,18.50
2024-03-14T15:20:49.219Z,18.50
2024-03-14T15:23:16.148Z,18.50
2024-03-14T15:25:43.334Z,18.40
2024-03-14T15:28:10.299Z,18.30
2024-03-14T15:30:37.257Z,18.30
2024-03-14T15:33:04.345Z,18.30
2024-03-14T15:35:31.374Z,18.20
2024-03-14T15:37:58.354Z,18.20
2024-03-14T15:40:25.343Z,18.30
2024-03-14T15:42:52.327Z,18.30
2024-03-14T15:45:20.135Z,18.20
2024-03-14T15:47:47.910Z,18.10
2024-03-14T15:50:15.003Z,18.10
2024-03-14T15:52:42.172Z,18.20
2024-03-14T15:55:09.135Z,18.20
2024-03-14T15:57:36.102Z,18.30
2024-03-14T16:00:03.238Z,18.20
2024-03-14T16:02:30.328Z,18.30
2024-03-14T16:04:57.275Z,18.30
2024-03-14T16:07:24.239Z,18.40
2024-03-14T16:09:51.326Z,18.30
2024-03-14T16:12:18.352Z,18.30
2024-03-14T16:14:46.578Z,18.10
2024-03-14T16:17:13.894Z,18.00
2024-03-14T16:19:40.935Z,17.90
2024-03-14T16:22:07.997Z,17.80
2024-03-14T16:24:34.964Z,17.70
2024-03-14T16:27:01.975Z,17.60
2024-03-14T16:29:29.013Z,17.40
2024-03-14T16:31:55.942Z,17.30
2024-03-14T16:34:22.894Z,17.20
2024-03-14T16:36:49.967Z,17.20
2024-03-14T16:39:16.999Z,17.20
2024-03-14T16:41:44.013Z,17.10
2024-03-14T16:44:10.924Z,17.00
2024-03-14T16:46:37.869Z,17.00
2024-03-14T16:49:04.795Z,16.90
2024-03-14T16:51:31.865Z,16.90
2024-03-14T16:53:58.804Z,16.80
2024-03-14T16:56:25.762Z,16.70
2024-03-14T16:58:52.732Z,16.70
2024-03-14T17:01:19.766Z,16.70
2024-03-14T17:03:46.734Z,16.60
2024-03-14T17:06:13.791Z,16.50
2024-03-14T17:08:40.776Z,16.50
2024-03-14T17:11:07.824Z,16.40
2024-03-14T17:13:34.793Z,16.30
2024-03-14T17:16:01.750Z,16.20
2024-03-14T17:18:29.075Z,16.20
2024-03-14T17:20:56.020Z,16.20
2024-03-14T17:23:22.968Z,16.10
2024-03-14T17:25:49.903Z,16.10
2024-03-14T17:28:16.849Z,16.00
2024-03-14T17:30:43.842Z,16.00
2024-03-14T17:33:10.916Z,15.90
2024-03-14T17:35:37.982Z,15.90
2024-03-14T17:38:04.986Z,15.90
2024-03-14T17:40:31.950Z,15.80
2024-03-14T17:42:58.929Z,15.70
2024-03-14T17:45:25.904Z,15.60
2024-03-14T17:47:52.984Z,15.50
2024-03-14T17:50:20.058Z,15.50
2024-03-14T17:52:47.250Z,15.40
2024-03-14T17:55:14.293Z,15.30
2024-03-14T17:57:41.222Z,15.20
2024-03-14T18:00:08.578Z,15.20
2024-03-14T18:02:35.560Z,15.20
2024-03-14T18:05:02.603Z,15.10
2024-03-14T18:07:29.637Z,15.00
2024-03-14T18:09:56.630Z,15.00
2024-03-14T18:12:23.585Z,14.90
2024-03-14T18:14:50.672Z,14.80
2024-03-14T18:17:20.180Z,14.80
2024-03-14T18:19:48.663Z,14.80
2024-03-14T18:22:15.845Z,14.70
2024-03-14T18:24:42.890Z,14.70
2024-03-14T18:27:09.894Z,14.70
2024-03-14T18:29:36.879Z,14.70
2024-03-14T18:32:04.118Z,14.60
2024-03-14T18:34:31.037Z,14.60
2024-03-14T18:36:57.976Z,14.60
2024-03-14T18:39:24.925Z,14.50
2024-03-14T18:41:51.890Z,14.50
2024-03-14T18:44:18.910Z,14.40
2024-03-14T18:46:46.019Z,14.40
2024-03-14T18:49:17.605Z,14.40
2024-03-14T18:51:49.526Z,14.30
2024-03-14T18:55:14.683Z,14.20
2024-03-14T18:57:41.701Z,14.20
2024-03-14T19:00:09.360Z,14.10
2024-03-14T19:02:36.399Z,14.10
2024-03-14T19:05:03.346Z,14.10
2024-03-14T19:07:30.319Z,14.10
2024-03-14T19:09:57.347Z,14.10
2024-03-14T19:12:24.313Z,14.10
2024-03-14T19:14:51.672Z,14.10
2024-03-14T19:17:21.970Z,14.00
2024-03-14T19:19:49.863Z,14.00
2024-03-14T19:22:17.337Z,14.00
2024-03-14T19:24:44.367Z,14.00
2024-03-14T19:27:11.509Z,14.00
2024-03-14T19:29:38.501Z,14.00
2024-03-14T19:32:05.602Z,14.00
2024-03-14T19:34:32.513Z,14.00
2024-03-14T19:36:59.459Z,14.00
2024-03-14T19:39:26.395Z,14.00
2024-03-14T19:41:53.439Z,14.00
2024-03-14T19:44:20.419Z,14.00
2024-03-14T19:46:47.388Z,14.00
2024-03-14T19:49:14.442Z,14.00
2024-03-14T19:51:41.596Z,14.00
2024-03-14T19:54:08.665Z,14.10
2024-03-14T19:56:36.898Z,14.10
2024-03-14T19:59:03.801Z,14.10
2024-03-14T20:01:30.811Z,14.10
2024-03-14T20:03:57.765Z,14.10
2024-03-14T20:06:24.789Z,14.00
2024-03-14T20:08:51.830Z,14.00
2024-03-14T20:11:18.834Z,14.10
2024-03-14T20:13:45.894Z,14.10
2024-03-14T20:16:14.264Z,14.10
2024-03-14T20:18:41.416Z,14.00
2024-03-14T20:21:08.411Z,14.00
2024-03-14T20:23:35.386Z,14.00
2024-03-14T20:26:02.337Z,13.90
2024-03-14T20:28:29.367Z,13.90
2024-03-14T20:30:56.430Z,13.90
2024-03-14T20:33:23.644Z,13.80
2024-03-14T20:35:50.817Z,13.90
2024-03-14T20:38:17.784Z,13.90
2024-03-14T20:40:52.229Z,13.90
2024-03-14T20:43:20.101Z,13.90
2024-03-14T20:45:47.081Z,13.90
2024-03-14T20:48:14.289Z,13.90
2024-03-14T20:50:41.401Z,13.90
2024-03-14T20:53:08.353Z,13.90
2024-03-14T20:55:35.367Z,13.90
2024-03-14T21:00:26.556Z,13.90
2024-03-14T21:04:56.371Z,13.80
2024-03-14T21:07:24.233Z,13.80
2024-03-14T21:09:53.289Z,13.80
2024-03-14T21:12:24.307Z,13.80
2024-03-14T21:14:54.046Z,13.80
2024-03-14T21:17:21.983Z,13.70
2024-03-14T21:19:49.785Z,13.70
2024-03-14T21:22:17.630Z,13.70
2024-03-14T21:24:45.614Z,13.70
2024-03-14T21:27:13.640Z,13.70
2024-03-14T21:29:41.929Z,13.70
2024-03-14T21:32:09.949Z,13.70
2024-03-14T21:34:39.395Z,13.70
2024-03-14T21:37:08.209Z,13.70
2024-03-14T21:39:39.070Z,13.70
2024-03-14T21:42:08.518Z,13.70
2024-03-14T21:44:44.245Z,13.70
2024-03-14T21:47:12.179Z,13.70
2024-03-14T21:49:39.920Z,13.60
2024-03-14T21:52:10.190Z,13.60
2024-03-14T21:54:38.456Z,13.60
2024-03-14T21:57:06.911Z,13.60
2024-03-14T21:59:35.616Z,13.50
2024-03-14T22:02:03.741Z,13.60
2024-03-14T22:04:31.582Z,13.60
2024-03-14T22:06:59.372Z,13.60
2024-03-14T22:09:27.282Z,13.60
2024-03-14T22:11:55.532Z,13.70
2024-03-14T22:14:23.371Z,13.70
2024-03-14T22:16:51.268Z,13.70
2024-03-14T22:19:19.691Z,13.70
2024-03-14T22:21:47.496Z,13.70
2024-03-14T22:24:15.331Z,13.70
2024-03-14T22:26:43.371Z,13.70
2024-03-14T22:29:12.177Z,13.70
2024-03-14T22:31:39.866Z,13.70
2024-03-14T22:34:08.009Z,13.70
2024-03-14T22:36:40.211Z,13.70
2024-03-14T22:39:10.376Z,13.60
2024-03-14T22:41:38.811Z,13.70
2024-03-14T22:44:07.036Z,13.70
2024-03-14T22:46:35.039Z,13.60
2024-03-14T22:49:03.089Z,13.70
2024-03-14T22:51:30.958Z,13.70
2024-03-14T22:53:59.260Z,13.70
2024-03-14T22:56:27.080Z,13.60
2024-03-14T22:58:54.821Z,13.60
2024-03-14T23:01:24.068Z,13.60
2024-03-14T23:03:51.929Z,13.60
2024-03-14T23:06:20.610Z,13.60
2024-03-14T23:08:49.472Z,13.50
2024-03-14T23:11:17.138Z,13.50
2024-03-14T23:13:44.990Z,13.50
2024-03-14T23:16:16.225Z,13.50
2024-03-14T23:18:44.067Z,13.40
2024-03-14T23:21:12.458Z,13.30
2024-03-14T23:23:40.297Z,13.30
2024-03-14T23:26:18.398Z,13.20
2024-03-14T23:28:51.474Z,13.10
2024-03-14T23:31:19.344Z,13.00
2024-03-14T23:33:47.552Z,12.90
2024-03-14T23:36:16.871Z,12.90
2024-03-14T23:38:44.992Z,12.80
2024-03-14T23:41:12.745Z,12.70
2024-03-14T23:43:42.695Z,12.70
2024-03-14T23:46:11.049Z,12.70
2024-03-14T23:48:38.953Z,12.70
2024-03-14T23:51:06.821Z,12.70
2024-03-14T23:53:34.675Z,12.60
2024-03-14T23:56:02.507Z,12.60
2024-03-14T23:58:30.601Z,12.50
